This is the latest recevied weather packets stored in our database for station/object OE3MHU-13. If no packets are shown the sender has not sent any weather packets the latest 10 day(s).
| Time | Temp. | Humidity | Pressure | Rain* | Wind** | Luminosity | Snow |
|---|---|---|---|---|---|---|---|
| 1787683973 | 21.11° C | 73% | 1016.6 hPa | 0 mm | - | - | - |
| 1787683666 | 20.56° C | 73% | 1016.5 hPa | 0 mm | - | - | - |
| 1787683363 | 20.56° C | 73% | 1016.5 hPa | 0 mm | - | - | - |
| 1787683057 | 20.56° C | 74% | 1016.4 hPa | 0 mm | - | - | - |
| 1787682748 | 20.56° C | 75% | 1016.3 hPa | 0 mm | - | - | - |
| 1787682443 | 20.56° C | 76% | 1016.3 hPa | 0 mm | - | - | - |
| 1787682137 | 20° C | 78% | 1016.2 hPa | 0 mm | - | - | - |
| 1787681831 | 20° C | 81% | 1016.1 hPa | 0 mm | - | - | - |
| 1787681525 | 20° C | 81% | 1016.1 hPa | 0 mm | - | - | - |
| 1787681218 | 20° C | 81% | 1016.2 hPa | 0 mm | - | - | - |
| 1787680912 | 20° C | 81% | 1016.1 hPa | 0 mm | - | - | - |
| 1787680606 | 20° C | 81% | 1016 hPa | 0 mm | - | - | - |
| 1787680301 | 20° C | 81% | 1016 hPa | 0 mm | - | - | - |
| 1787679994 | 20° C | 82% | 1015.9 hPa | 0 mm | - | - | - |
| 1787679692 | 20° C | 81% | 1015.8 hPa | 0 mm | - | - | - |
| 1787679383 | 20° C | 82% | 1015.7 hPa | 0.25 mm | - | - | - |
| 1787679076 | 20° C | 81% | 1015.8 hPa | 0.25 mm | - | - | - |
| 1787678770 | 20° C | 80% | 1015.8 hPa | 0.25 mm | - | - | - |
| 1787678467 | 20.56° C | 80% | 1015.7 hPa | 0.25 mm | - | - | - |
| 1787678161 | 20.56° C | 80% | 1015.6 hPa | 0.25 mm | - | - | - |
| 1787677852 | 20.56° C | 79% | 1015.7 hPa | 0.25 mm | - | - | - |
| 1787677547 | 20.56° C | 79% | 1015.6 hPa | 0.25 mm | - | - | - |
| 1787677253 | 20.56° C | 77% | 1015.5 hPa | 0.25 mm | - | - | - |
| 1787676944 | 21.11° C | 75% | 1015.5 hPa | 0.25 mm | - | - | - |
| 1787676641 | 21.67° C | 72% | 1015.5 hPa | 0.25 mm | - | - | - |
* Rain latest hour (hover to see other rain measurements)
** Current wind speed in m/s (hover to see current wind gust speed)